WetterOnline ( http://www.wetteronline.de )

Wetter aktuell Taunus (in 800m)

Aktuelles Wetter: Kleiner Feldberg (802m)

6-stündlich | Neueste Meldungen
Ortszeit Temperatur Wetter
So, 19.08. 20:00 21.5° C leicht bewölkt
So, 19.08. 14:00 22.8° C leicht bewölkt
So, 19.08. 8:00 17.7° C leicht bewölkt
So, 19.08. 2:00 17.4° C wolkig
Sa, 18.08. 20:00 18.6° C leicht bewölkt
Sa, 18.08. 14:00 21.2° C fast wolkenlos
Sa, 18.08. 8:00 13.1° C bedeckt
Sa, 18.08. 2:00 13.4° C bedeckt
Ortszeit Temperatur Wetter
So, 19.08. 21:00 19.4° C leicht bewölkt
So, 19.08. 20:50 19.4° C leicht bewölkt
So, 19.08. 20:40 19.5° C leicht bewölkt
So, 19.08. 20:30 20.3° C leicht bewölkt
So, 19.08. 20:20 20.3° C fast wolkenlos
So, 19.08. 20:10 20.7° C leicht bewölkt
So, 19.08. 20:00 21.5° C leicht bewölkt
So, 19.08. 19:30 22.4° C wolkenlos
So, 19.08. 19:00 23.5° C leicht bewölkt
So, 19.08. 18:30 23.7° C wolkig
So, 19.08. 18:00 24.3° C leicht bewölkt
Ortszeit Relative Feuchte Sichtweite
So, 19.08. 20:00 46% 70 km
So, 19.08. 14:00 40% 30 km
So, 19.08. 8:00 51% 60 km
So, 19.08. 2:00 47% 65 km
Sa, 18.08. 20:00 41% 65 km
Sa, 18.08. 14:00 44% 25 km
Sa, 18.08. 8:00 72% 35 km
Sa, 18.08. 2:00 92% 5.0 km
Ortszeit Relative Feuchte Sichtweite
So, 19.08. 21:00 53% 55 km
So, 19.08. 20:50 53% -
So, 19.08. 20:40 52% -
So, 19.08. 20:30 50% 70 km
So, 19.08. 20:20 50% -
So, 19.08. 20:10 48% -
So, 19.08. 20:00 46% 70 km
So, 19.08. 19:30 43% 70 km
So, 19.08. 19:00 36% 55 km
So, 19.08. 18:30 35% 55 km
So, 19.08. 18:00 33% 45 km
Ortszeit Niederschlagsmenge Niederschlagsart
So, 19.08. 20:00 0.0 l/m2 in 12 Std. -
So, 19.08. 14:00 0.0 l/m2 in 6 Std. -
So, 19.08. 8:00 0.0 l/m2 in 12 Std. -
So, 19.08. 2:00 0.0 l/m2 in 6 Std. -
Sa, 18.08. 20:00 0.0 l/m2 in 12 Std. -
Sa, 18.08. 14:00 0.0 l/m2 in 6 Std. -
Sa, 18.08. 8:00 0.1 l/m2 in 12 Std. -
Sa, 18.08. 2:00 0.1 l/m2 in 6 Std. Regen
Ortszeit Niederschlagsmenge Niederschlagsart
So, 19.08. 21:00 0.0 l/m2 in 1 Std. -
So, 19.08. 20:50 keine Meldung -
So, 19.08. 20:40 keine Meldung -
So, 19.08. 20:30 0.0 l/m2 in 1 Std. -
So, 19.08. 20:20 keine Meldung -
So, 19.08. 20:10 keine Meldung -
So, 19.08. 20:00 0.0 l/m2 in 1 Std. -
So, 19.08. 19:30 0.0 l/m2 in 1 Std. -
So, 19.08. 19:00 0.0 l/m2 in 1 Std. -
So, 19.08. 18:30 0.0 l/m2 in 1 Std. -
So, 19.08. 18:00 0.0 l/m2 in 1 Std. -
Ortszeit Stärke Spitze Richtung
km/h Bft. km/h Grad Sektor
So, 19.08. 20:00 7 2 32 280° W
So, 19.08. 14:00 13 3 30 220° SW
So, 19.08. 8:00 6 1 9 160° S
So, 19.08. 2:00 4 1 22 190° S
Sa, 18.08. 20:00 9 2 24 300° NW
Sa, 18.08. 14:00 9 2 30 280° W
Sa, 18.08. 8:00 17 3 28 350° N
Sa, 18.08. 2:00 17 3 35 350° N
Ortszeit Stärke Spitze Richtung
km/h Bft. km/h Grad Sektor
So, 19.08. 21:00 11 2 22 290° W
So, 19.08. 20:50 11 2 - 290° W
So, 19.08. 20:40 11 2 - 290° W
So, 19.08. 20:30 13 3 22 290° W
So, 19.08. 20:20 13 3 - 290° W
So, 19.08. 20:10 11 2 - 290° W
So, 19.08. 20:00 7 2 22 280° W
So, 19.08. 19:30 9 2 22 280° W
So, 19.08. 19:00 11 2 29 220° SW
So, 19.08. 18:30 11 2 25 230° SW
So, 19.08. 18:00 13 3 26 220° SW
Ortszeit Untergrenze Bedeckung Gattung
total tief tief mittel hoch
So, 19.08. 20:00 2400 m 2/8 1/8 - - -
So, 19.08. 14:00 2400 m 2/8 - - - -
So, 19.08. 8:00 9000 m 5/8 0/8 - - -
So, 19.08. 2:00 9000 m 8/8 0/8 - - -
Sa, 18.08. 20:00 10500 m 8/8 0/8 - - -
Sa, 18.08. 14:00 10500 m 2/8 0/8 - - -
Sa, 18.08. 8:00 630 m 8/8 8/8 - - -
Sa, 18.08. 2:00 1080 m 8/8 8/8 - - -
Ortszeit Bedeckungsgrad in Achtel und Wolkenuntergrenze
So, 19.08. 21:00 1(3000m) 6(10500m)
So, 19.08. 20:50 1(3000m) 6(10500m)
So, 19.08. 20:40 2(3000m) 3(10500m)
So, 19.08. 20:30 1(3000m) 9 9
So, 19.08. 20:20 1(3000m)
So, 19.08. 20:10 1(3000m) 2(10500m)
So, 19.08. 20:00 1(2400m)
So, 19.08. 19:30 keine Wolken
So, 19.08. 19:00 7(10500m)
So, 19.08. 18:30 7(10500m)
So, 19.08. 18:00 3(10500m)
Ortszeit Stationsdruck (hPa) Tendenz (hPa in 3 Std.)
So, 19.08. 20:00 926 - 0,6
So, 19.08. 14:00 928 - 0,7
So, 19.08. 8:00 928 - 0,2
So, 19.08. 2:00 928 - 0,1
Sa, 18.08. 20:00 927 - 0,2
Sa, 18.08. 14:00 928 0,0
Sa, 18.08. 8:00 927 + 0,7
Sa, 18.08. 2:00 926 + 0,7
Ortszeit Stationsdruck (hPa) Tendenz (hPa in 3 Std.)
So, 19.08. 21:00 926 - 0,5
So, 19.08. 20:50 926 keine Meldung
So, 19.08. 20:40 926 keine Meldung
So, 19.08. 20:30 926 - 0,6
So, 19.08. 20:20 926 keine Meldung
So, 19.08. 20:10 926 keine Meldung
So, 19.08. 20:00 926 - 0,6
So, 19.08. 19:30 926 - 0,8
So, 19.08. 19:00 926 - 0,9
So, 19.08. 18:30 926 - 0,9
So, 19.08. 18:00 926 - 1,0
Ortszeit Schneehöhe (cm)
So, 19.08. 20:00 -
So, 19.08. 14:00 -
So, 19.08. 8:00 -
So, 19.08. 2:00 -
Sa, 18.08. 20:00 -
Sa, 18.08. 14:00 -
Sa, 18.08. 8:00 -
Sa, 18.08. 2:00 -
Ortszeit Schneehöhe (cm)
So, 19.08. 21:00 -
So, 19.08. 20:50 -
So, 19.08. 20:40 -
So, 19.08. 20:30 -
So, 19.08. 20:20 -
So, 19.08. 20:10 -
So, 19.08. 20:00 -
So, 19.08. 19:30 -
So, 19.08. 19:00 -
So, 19.08. 18:30 -
So, 19.08. 18:00 -
Link zu dieser Seite / Seite empfehlen

Das Wetter in ...